Buoy 44891

sailwx.info

Track history (hours):
 
Tides and Currents Weather Stations Pressure Air Temp Water Temp Dewpoint Dewpoint Depression Visibility Wind Speed Wind Dir Waves Ship Positions

Drifting buoy 44891

Last reported at 2018-Aug-19 22:00 UTC. Time now 2018-Aug-19 23:12 UTC.
Position N 39°18' W 048°20'.

Barometer 1018.8 mb
Water temperature 27.4 ° C

Date/timePositionNaut miles runAvg speedWind from/ knotsBaromVisibWave heightAir tempDewpointWater temp
2018-Aug-19 22:00N 39°18' W 048°20'1 0.4 1018.8 27.4
2018-Aug-19 20:00N 39°17' W 048°21'1 0.8 1017.8 27.6
2018-Aug-19 19:00N 39°17' W 048°22'1 0.8 1017.4 27.6
2018-Aug-19 18:00N 39°16' W 048°22'0 0.0 1017.6 27.6
2018-Aug-19 17:00N 39°16' W 048°22'0 0.5 1017.6 27.6
2018-Aug-19 16:00N 39°16' W 048°23'1 0.8 1017.5 27.5
2018-Aug-19 15:00N 39°16' W 048°23'0 0.5 1017.6 27.4
2018-Aug-19 14:00N 39°16' W 048°24'1 0.9 1017.7 27.3
2018-Aug-19 13:00N 39°16' W 048°25'1 0.8 1017.8 27.2
2018-Aug-19 12:00N 39°15' W 048°26'1 0.9 1017.7 27.2
2018-Aug-19 11:00N 39°15' W 048°27'1 0.8 1017.2 27.2
2018-Aug-19 10:00N 39°14' W 048°28'1 1.1 1017.0 27.2
2018-Aug-19 09:00N 39°14' W 048°29'1 0.8 1016.6 27.2
2018-Aug-19 08:00N 39°13' W 048°29'1 0.6 1016.0 27.2
2018-Aug-19 07:00N 39°13' W 048°29'1 0.8 1015.6 27.2
2018-Aug-19 06:00N 39°12' W 048°30'1 0.8 1015.7 27.2
2018-Aug-19 05:00N 39°11' W 048°31'1 0.9 1016.0 27.2
2018-Aug-19 04:00N 39°11' W 048°32'1 0.8 1016.2 27.2
2018-Aug-19 03:00N 39°11' W 048°32'1 0.8 1016.6 27.3
2018-Aug-19 02:00N 39°10' W 048°33'1 0.8 1016.9 27.3
2018-Aug-19 01:00N 39°10' W 048°34'0 0.5 1017.0 27.3
2018-Aug-19 00:00N 39°10' W 048°34'1 0.8 1016.9 27.3
2018-Aug-18 23:00N 39°09' W 048°35'1 0.8 1016.4 27.4
2018-Aug-18 22:00N 39°08' W 048°35'0 0.5 1015.7 27.4
2018-Aug-18 21:00N 39°08' W 048°36'0 0.5 1015.2 27.4
2018-Aug-18 20:00N 39°08' W 048°37'1 0.8 1015.1 27.5
2018-Aug-18 19:00N 39°08' W 048°37'0 0.5 1015.0 27.5
2018-Aug-18 18:00N 39°08' W 048°38'0 0.5 1015.0 27.5
2018-Aug-18 17:00N 39°08' W 048°38'1 0.8 1015.0 27.5
2018-Aug-18 16:00N 39°07' W 048°39'0 0.5 1015.1 27.5
2018-Aug-18 15:00N 39°07' W 048°40'1 0.8 1015.4 27.4
2018-Aug-18 14:00N 39°07' W 048°40'1 0.9 1015.8 27.3
2018-Aug-18 13:00N 39°07' W 048°41'0 0.5 1015.8 27.2
2018-Aug-18 12:00N 39°07' W 048°42'1 0.8 1015.5 27.2
2018-Aug-18 11:00N 39°06' W 048°43'0 0.5 1015.8 27.2
2018-Aug-18 10:00N 39°06' W 048°43'1 0.9 1015.8 27.1
2018-Aug-18 09:00N 39°06' W 048°44'2 0.8 1015.3 27.1
2018-Aug-18 07:00N 39°05' W 048°46'2 0.9 1015.2 27.2
2018-Aug-18 05:00N 39°04' W 048°48'0 0.5 1015.7 27.2
2018-Aug-18 04:00N 39°04' W 048°49'1 1.1 1016.1 27.2
2018-Aug-18 03:00N 39°04' W 048°50'1 0.8 1016.6 27.2
2018-Aug-18 02:00N 39°03' W 048°50'0 0.2 1016.6 27.2
2018-Aug-18 00:00N 39°03' W 048°51'0 0.5 1017.2 27.3
2018-Aug-17 23:00N 39°03' W 048°52'0 0.5 1017.0 27.3
2018-Aug-17 22:00N 39°03' W 048°52'0 0.5 1016.3 27.3
2018-Aug-17 21:00N 39°03' W 048°53'0 0.5 1016.2 27.3
2018-Aug-17 20:00N 39°03' W 048°53'0 0.5 1016.5 27.3
2018-Aug-17 19:00N 39°03' W 048°54'1 0.9 1016.8 27.4
2018-Aug-17 18:00N 39°03' W 048°55'1 0.6 1016.5 27.4
2018-Aug-17 16:00N 39°04' W 048°56'1 0.9 1017.0 27.3
2018-Aug-17 15:00N 39°04' W 048°58'0 0.5 1017.2 27.3
2018-Aug-17 14:00N 39°04' W 048°58'0 0.5 1017.7 27.3
2018-Aug-17 13:00N 39°04' W 048°59'1 1.1 1018.3 27.2
2018-Aug-17 12:00N 39°04' W 049°00'0 0.5 1018.0 27.2
2018-Aug-17 11:00N 39°04' W 049°01'1 1.1 1018.5 27.2
2018-Aug-17 10:00N 39°05' W 049°02'0 0.5 1018.5 27.2
2018-Aug-17 09:00N 39°05' W 049°02'0 0.5 1018.5 27.2
2018-Aug-17 08:00N 39°05' W 049°03'0 0.5 1018.6 27.2
2018-Aug-17 07:00N 39°05' W 049°04'0 0.5 1018.5 27.2
2018-Aug-17 06:00N 39°05' W 049°04'0 0.5 1018.5 27.2
2018-Aug-17 05:00N 39°05' W 049°05'0 0.0 1018.7 27.2
2018-Aug-17 03:00N 39°05' W 049°05'0 0.0 1019.5 27.2
2018-Aug-17 02:00N 39°05' W 049°05'1 0.8 1019.9 27.2
2018-Aug-17 01:00N 39°05' W 049°05'0 0.0 1020.1 27.3
2018-Aug-17 00:00N 39°05' W 049°05'1 0.6 1020.1 27.3
2018-Aug-16 23:00N 39°06' W 049°05'1 0.8 1019.6 27.3
2018-Aug-16 22:00N 39°07' W 049°06'1 0.4 1019.5 27.4
2018-Aug-16 20:00N 39°07' W 049°07'0 0.5 1019.5 27.4
2018-Aug-16 19:00N 39°07' W 049°07'1 0.8 1019.4 27.4
2018-Aug-16 18:00N 39°08' W 049°08'0 0.5 1019.4 27.4
2018-Aug-16 17:00N 39°08' W 049°08'0 0.2 1019.5 27.4
2018-Aug-16 15:00N 39°08' W 049°09'1 0.6 1019.7 27.4
2018-Aug-16 14:00N 39°07' W 049°09'0 0.0 1019.9 27.3
2018-Aug-16 13:00N 39°07' W 049°09'0 0.0 1020.0 27.2
2018-Aug-16 12:00N 39°07' W 049°09'0 0.0 1019.7 27.2
2018-Aug-16 11:00N 39°07' W 049°09'0 0.5 1019.5 27.2
2018-Aug-16 10:00N 39°07' W 049°08'0 0.2 1019.2 27.2
2018-Aug-16 08:00N 39°07' W 049°08'2 0.2 1018.2 27.1
2018-Aug-16 01:00N 39°08' W 049°07'0 0.2 1018.0 27.3
2018-Aug-15 23:00N 39°08' W 049°06'0 0.0 1017.6 27.3
2018-Aug-15 21:00N 39°08' W 049°06'2 0.4 1016.6 27.3
2018-Aug-15 16:00N 39°07' W 049°04'1 0.6 1016.4 27.3
2018-Aug-15 14:00N 39°07' W 049°03'1 1.1 1016.5 27.2
2018-Aug-15 13:00N 39°06' W 049°02'0 0.5 1016.6 27.2
2018-Aug-15 12:00N 39°06' W 049°01'3 0.6 1016.7 27.1
2018-Aug-15 07:00N 39°05' W 048°58'2 0.6 1016.3 27.2
2018-Aug-15 04:00N 39°04' W 048°56'0 0.5 1016.7 27.3
2018-Aug-15 03:00N 39°04' W 048°55'1 0.8 1017.2 27.3
2018-Aug-15 02:00N 39°04' W 048°55'1 0.6 1017.2 27.3
2018-Aug-15 00:00N 39°03' W 048°53'2 0.9 1017.1 27.3
2018-Aug-14 22:00N 39°02' W 048°52'1 0.8 1016.2 27.4
2018-Aug-14 21:00N 39°01' W 048°51'1 0.8 1015.6 27.4
2018-Aug-14 20:00N 39°01' W 048°50'1 0.8 1015.7 27.4
2018-Aug-14 19:00N 39°00' W 048°50'2 1.5 1015.5 27.4
2018-Aug-14 18:00N 38°59' W 048°49'2 1.1 1015.6 27.4
2018-Aug-14 16:00N 38°57' W 048°47'1 1.1 1015.7 27.4
2018-Aug-14 15:00N 38°56' W 048°46'2 1.5 1015.7 27.3
2018-Aug-14 14:00N 38°55' W 048°44'3 1.3 1016.0 27.3
2018-Aug-14 12:00N 38°54' W 048°41'1 1.1 1015.7 27.2
2018-Aug-14 11:00N 38°53' W 048°40'3 1.3 1015.5 27.2
2018-Aug-14 09:00N 38°52' W 048°38'1 0.8 1014.7 27.2
2018-Aug-14 08:00N 38°51' W 048°37'1 1.1 1014.1 27.3
2018-Aug-14 07:00N 38°50' W 048°36'1 1.1 1013.9 27.3
2018-Aug-14 06:00N 38°50' W 048°35'1 0.8 1014.3 27.3
2018-Aug-14 05:00N 38°49' W 048°34'1 1.3 1014.6 27.3
2018-Aug-14 04:00N 38°48' W 048°34'1 0.8 1014.6 27.3
2018-Aug-14 03:00N 38°47' W 048°33'2 1.5 1014.9 27.3
2018-Aug-14 02:00N 38°46' W 048°32'1 1.3 1014.7 27.4
2018-Aug-14 01:00N 38°45' W 048°31'1 1.3 1014.5 27.4
2018-Aug-14 00:00N 38°44' W 048°31'1 1.1 1014.4 27.4
2018-Aug-13 23:00N 38°43' W 048°29'2 1.5 1014.1 27.4
2018-Aug-13 22:00N 38°42' W 048°28'1 1.1 1014.0 27.4
2018-Aug-13 21:00N 38°41' W 048°27'1 1.1 1014.1 27.5
2018-Aug-13 20:00N 38°41' W 048°26'1 0.8 1013.8 27.6
2018-Aug-13 19:00N 38°40' W 048°25'2 0.8 1013.3 27.6
2018-Aug-13 17:00N 38°39' W 048°24'1 0.8 1013.6 27.5
2018-Aug-13 16:00N 38°38' W 048°23'0 0.5 1013.8 27.5
2018-Aug-13 15:00N 38°38' W 048°23'1 0.8 1014.0 27.4
2018-Aug-13 14:00N 38°38' W 048°22'1 0.8 1014.1 27.4
2018-Aug-13 13:00N 38°37' W 048°22'1 0.6 1014.8 27.3
2018-Aug-13 12:00N 38°37' W 048°22'1 0.8 1014.8 27.2
2018-Aug-13 11:00N 38°36' W 048°21'0 0.0 1015.0 27.2
2018-Aug-13 10:00N 38°36' W 048°21'1 0.6 1015.0 27.2
2018-Aug-13 09:00N 38°35' W 048°21'1 0.6 1015.3 27.2
2018-Aug-13 08:00N 38°35' W 048°21'1 1.2 1015.2 27.2
2018-Aug-13 07:00N 38°34' W 048°21'1 0.6 1015.1 27.2
2018-Aug-13 06:00N 38°33' W 048°21'1 0.6 1015.6 27.2
2018-Aug-13 05:00N 38°32' W 048°21'1 0.6 1016.1 27.2
2018-Aug-13 04:00N 38°32' W 048°21'2 0.9 1016.2 27.3
2018-Aug-13 02:00N 38°30' W 048°20'1 0.6 1017.1 27.4
2018-Aug-13 01:00N 38°29' W 048°20'0 0.5 1017.8 27.4
2018-Aug-13 00:00N 38°29' W 048°20'1 0.6 1018.3 27.4
2018-Aug-12 23:00N 38°29' W 048°20'1 0.6 1017.8 27.5
2018-Aug-12 21:00N 38°28' W 048°19'0 0.0 1018.1 27.6
2018-Aug-12 20:00N 38°28' W 048°19'1 0.6 1018.2 27.6
2018-Aug-12 19:00N 38°27' W 048°19'0 0.0 1018.4 27.6
2018-Aug-12 18:00N 38°27' W 048°19'1 0.6 1018.9 27.6
2018-Aug-12 17:00N 38°26' W 048°19'1 0.8 1019.6 27.6
2018-Aug-12 16:00N 38°26' W 048°20'0 0.0 1020.1 27.5
2018-Aug-12 15:00N 38°26' W 048°20'1 0.6 1020.6 27.5
2018-Aug-12 14:00N 38°25' W 048°20'1 0.8 1020.7 27.4
2018-Aug-12 13:00N 38°25' W 048°20'1 0.8 1020.8 27.3
2018-Aug-12 12:00N 38°24' W 048°21'1 0.6 1021.1 27.2
2018-Aug-12 11:00N 38°23' W 048°21'1 0.6 1021.2 27.2
2018-Aug-12 10:00N 38°23' W 048°21'1 0.6 1021.5 27.2
2018-Aug-12 09:00N 38°22' W 048°21'1 0.6 1021.4 27.2
2018-Aug-12 08:00N 38°22' W 048°21'1 0.6 1021.2 27.2
2018-Aug-12 07:00N 38°21' W 048°21'1 0.6 1021.3 27.2
2018-Aug-12 06:00N 38°20' W 048°21'1 0.6 1021.4 27.2
2018-Aug-12 05:00N 38°20' W 048°21'1 0.6 1021.9 27.2
2018-Aug-12 04:00N 38°19' W 048°21'1 0.8 1022.3 27.2
2018-Aug-12 03:00N 38°19' W 048°20'0 0.0 1022.5 27.2
2018-Aug-12 02:00N 38°19' W 048°20'1 0.8 1022.4 27.3
2018-Aug-12 01:00N 38°18' W 048°20'0 0.0 1022.9 27.3
2018-Aug-12 00:00N 38°18' W 048°20'0 0.0 1023.1 27.3
2018-Aug-11 23:00N 38°18' W 048°20'0 0.5 1022.7 27.3
2018-Aug-11 22:00N 38°18' W 048°20'1 0.6 1022.5 27.3
2018-Aug-11 21:00N 38°17' W 048°20'0 0.5 1022.4 27.4
2018-Aug-11 20:00N 38°17' W 048°21'1 0.8 1022.2 27.4
2018-Aug-11 19:00N 38°17' W 048°22'1 0.8 1022.4 27.4
2018-Aug-11 18:00N 38°16' W 048°22'1 0.8 1022.3 27.4
2018-Aug-11 17:00N 38°16' W 048°23'1 1.3 1022.3 27.4
2018-Aug-11 16:00N 38°14' W 048°23'1 0.6 1022.2 27.3
2018-Aug-11 15:00N 38°14' W 048°23'1 1.3 1022.0 27.2
2018-Aug-11 14:00N 38°13' W 048°24'1 0.6 1022.2 27.1
2018-Aug-11 13:00N 38°12' W 048°24'1 0.6 1022.3 27.0
2018-Aug-11 12:00N 38°11' W 048°24'1 0.6 1022.0 26.9
2018-Aug-11 11:00N 38°11' W 048°24'1 0.6 1021.7 26.9
2018-Aug-11 10:00N 38°10' W 048°24'1 0.6 1021.6 26.9
2018-Aug-11 09:00N 38°10' W 048°24'0 0.0 1021.4 27.0
2018-Aug-11 08:00N 38°10' W 048°24'1 0.6 1021.2 27.0
2018-Aug-11 07:00N 38°09' W 048°24'0 0.5 1021.2 27.0
2018-Aug-11 06:00N 38°09' W 048°25'1 0.6 1021.2 27.1
2018-Aug-11 05:00N 38°08' W 048°25'1 0.6 1021.5 27.1
2018-Aug-11 03:00N 38°08' W 048°26'1 0.6 1021.8 27.1
2018-Aug-11 02:00N 38°07' W 048°26'1 0.9 1021.8 27.1
2018-Aug-11 01:00N 38°07' W 048°27'1 0.8 1022.0 27.2
2018-Aug-11 00:00N 38°07' W 048°28'1 0.8 1021.6 27.2
2018-Aug-10 23:00N 38°06' W 048°28'1 0.8 1021.1 27.2
2018-Aug-10 22:00N 38°05' W 048°29'1 0.6 1020.6 27.3
2018-Aug-10 21:00N 38°05' W 048°29'1 1.3 1020.0 27.4
2018-Aug-10 20:00N 38°04' W 048°29'1 0.8 1020.0 27.5
2018-Aug-10 19:00N 38°03' W 048°30'1 0.6 1019.9 27.6
2018-Aug-10 18:00N 38°02' W 048°30'1 0.6 1019.7 27.6
2018-Aug-10 16:00N 38°01' W 048°31'0 0.0 1019.8 27.4
2018-Aug-10 15:00N 38°01' W 048°31'1 0.8 1019.8 27.2
2018-Aug-10 14:00N 38°01' W 048°31'0 0.0 1020.0 27.1
2018-Aug-10 13:00N 38°01' W 048°31'1 0.8 1019.7 27.1
2018-Aug-10 12:00N 38°00' W 048°32'0 0.0 1019.7 27.0
2018-Aug-10 11:00N 38°00' W 048°32'0 0.5 1019.6 26.9
2018-Aug-10 10:00N 38°00' W 048°32'1 0.5 1019.4 26.9
2018-Aug-10 08:00N 38°00' W 048°34'1 0.8 1019.1 26.9
2018-Aug-10 07:00N 37°59' W 048°34'0 0.5 1019.0 26.9
2018-Aug-10 06:00N 37°59' W 048°35'1 0.8 1019.0 26.9
2018-Aug-10 05:00N 37°59' W 048°35'0 0.5 1019.0 26.9
2018-Aug-10 04:00N 37°59' W 048°36'1 0.6 1019.2 26.9
2018-Aug-10 03:00N 37°58' W 048°36'1 0.8 1019.6 27.0
2018-Aug-10 02:00N 37°58' W 048°37'0 0.0 1019.7 27.0
2018-Aug-10 01:00N 37°58' W 048°37'0 0.5 1019.7 27.0
2018-Aug-10 00:00N 37°58' W 048°37'1 0.6 1019.4 27.1
2018-Aug-09 23:00N 37°57' W 048°37'0 0.5 1018.6 27.2
2018-Aug-09 22:00N 37°57' W 048°38'   1018.0 27.2
Track history (hours):
 
Tides and Currents Weather Stations Pressure Air Temp Water Temp Dewpoint Dewpoint Depression Visibility Wind Speed Wind Dir Waves Ship Positions

Drifting buoy 44891

Last reported at 2018-Aug-19 22:00 UTC. Time now 2018-Aug-19 23:12 UTC.
Position N 39°18' W 048°20'.

Barometer 1018.8 mb
Water temperature 27.4 ° C

Date/timePositionNaut miles runAvg speedWind from/ knotsBaromVisibWave heightAir tempDewpointWater temp
2018-Aug-19 22:00N 39°18' W 048°20'1 0.4 1018.8 27.4
2018-Aug-19 20:00N 39°17' W 048°21'1 0.8 1017.8 27.6
2018-Aug-19 19:00N 39°17' W 048°22'1 0.8 1017.4 27.6
2018-Aug-19 18:00N 39°16' W 048°22'0 0.0 1017.6 27.6
2018-Aug-19 17:00N 39°16' W 048°22'0 0.5 1017.6 27.6
2018-Aug-19 16:00N 39°16' W 048°23'1 0.8 1017.5 27.5
2018-Aug-19 15:00N 39°16' W 048°23'0 0.5 1017.6 27.4
2018-Aug-19 14:00N 39°16' W 048°24'1 0.9 1017.7 27.3
2018-Aug-19 13:00N 39°16' W 048°25'1 0.8 1017.8 27.2
2018-Aug-19 12:00N 39°15' W 048°26'1 0.9 1017.7 27.2
2018-Aug-19 11:00N 39°15' W 048°27'1 0.8 1017.2 27.2
2018-Aug-19 10:00N 39°14' W 048°28'1 1.1 1017.0 27.2
2018-Aug-19 09:00N 39°14' W 048°29'1 0.8 1016.6 27.2
2018-Aug-19 08:00N 39°13' W 048°29'1 0.6 1016.0 27.2
2018-Aug-19 07:00N 39°13' W 048°29'1 0.8 1015.6 27.2
2018-Aug-19 06:00N 39°12' W 048°30'1 0.8 1015.7 27.2
2018-Aug-19 05:00N 39°11' W 048°31'1 0.9 1016.0 27.2
2018-Aug-19 04:00N 39°11' W 048°32'1 0.8 1016.2 27.2
2018-Aug-19 03:00N 39°11' W 048°32'1 0.8 1016.6 27.3
2018-Aug-19 02:00N 39°10' W 048°33'1 0.8 1016.9 27.3
2018-Aug-19 01:00N 39°10' W 048°34'0 0.5 1017.0 27.3
2018-Aug-19 00:00N 39°10' W 048°34'1 0.8 1016.9 27.3
2018-Aug-18 23:00N 39°09' W 048°35'1 0.8 1016.4 27.4
2018-Aug-18 22:00N 39°08' W 048°35'0 0.5 1015.7 27.4
2018-Aug-18 21:00N 39°08' W 048°36'0 0.5 1015.2 27.4
2018-Aug-18 20:00N 39°08' W 048°37'1 0.8 1015.1 27.5
2018-Aug-18 19:00N 39°08' W 048°37'0 0.5 1015.0 27.5
2018-Aug-18 18:00N 39°08' W 048°38'0 0.5 1015.0 27.5
2018-Aug-18 17:00N 39°08' W 048°38'1 0.8 1015.0 27.5
2018-Aug-18 16:00N 39°07' W 048°39'0 0.5 1015.1 27.5
2018-Aug-18 15:00N 39°07' W 048°40'1 0.8 1015.4 27.4
2018-Aug-18 14:00N 39°07' W 048°40'1 0.9 1015.8 27.3
2018-Aug-18 13:00N 39°07' W 048°41'0 0.5 1015.8 27.2
2018-Aug-18 12:00N 39°07' W 048°42'1 0.8 1015.5 27.2
2018-Aug-18 11:00N 39°06' W 048°43'0 0.5 1015.8 27.2
2018-Aug-18 10:00N 39°06' W 048°43'1 0.9 1015.8 27.1
2018-Aug-18 09:00N 39°06' W 048°44'2 0.8 1015.3 27.1
2018-Aug-18 07:00N 39°05' W 048°46'2 0.9 1015.2 27.2
2018-Aug-18 05:00N 39°04' W 048°48'0 0.5 1015.7 27.2
2018-Aug-18 04:00N 39°04' W 048°49'1 1.1 1016.1 27.2
2018-Aug-18 03:00N 39°04' W 048°50'1 0.8 1016.6 27.2
2018-Aug-18 02:00N 39°03' W 048°50'0 0.2 1016.6 27.2
2018-Aug-18 00:00N 39°03' W 048°51'0 0.5 1017.2 27.3
2018-Aug-17 23:00N 39°03' W 048°52'0 0.5 1017.0 27.3
2018-Aug-17 22:00N 39°03' W 048°52'0 0.5 1016.3 27.3
2018-Aug-17 21:00N 39°03' W 048°53'0 0.5 1016.2 27.3
2018-Aug-17 20:00N 39°03' W 048°53'0 0.5 1016.5 27.3
2018-Aug-17 19:00N 39°03' W 048°54'1 0.9 1016.8 27.4
2018-Aug-17 18:00N 39°03' W 048°55'1 0.6 1016.5 27.4
2018-Aug-17 16:00N 39°04' W 048°56'1 0.9 1017.0 27.3
2018-Aug-17 15:00N 39°04' W 048°58'0 0.5 1017.2 27.3
2018-Aug-17 14:00N 39°04' W 048°58'0 0.5 1017.7 27.3
2018-Aug-17 13:00N 39°04' W 048°59'1 1.1 1018.3 27.2
2018-Aug-17 12:00N 39°04' W 049°00'0 0.5 1018.0 27.2
2018-Aug-17 11:00N 39°04' W 049°01'1 1.1 1018.5 27.2
2018-Aug-17 10:00N 39°05' W 049°02'0 0.5 1018.5 27.2
2018-Aug-17 09:00N 39°05' W 049°02'0 0.5 1018.5 27.2
2018-Aug-17 08:00N 39°05' W 049°03'0 0.5 1018.6 27.2
2018-Aug-17 07:00N 39°05' W 049°04'0 0.5 1018.5 27.2
2018-Aug-17 06:00N 39°05' W 049°04'0 0.5 1018.5 27.2
2018-Aug-17 05:00N 39°05' W 049°05'0 0.0 1018.7 27.2
2018-Aug-17 03:00N 39°05' W 049°05'0 0.0 1019.5 27.2
2018-Aug-17 02:00N 39°05' W 049°05'1 0.8 1019.9 27.2
2018-Aug-17 01:00N 39°05' W 049°05'0 0.0 1020.1 27.3
2018-Aug-17 00:00N 39°05' W 049°05'1 0.6 1020.1 27.3
2018-Aug-16 23:00N 39°06' W 049°05'1 0.8 1019.6 27.3
2018-Aug-16 22:00N 39°07' W 049°06'1 0.4 1019.5 27.4
2018-Aug-16 20:00N 39°07' W 049°07'0 0.5 1019.5 27.4
2018-Aug-16 19:00N 39°07' W 049°07'1 0.8 1019.4 27.4
2018-Aug-16 18:00N 39°08' W 049°08'0 0.5 1019.4 27.4
2018-Aug-16 17:00N 39°08' W 049°08'0 0.2 1019.5 27.4
2018-Aug-16 15:00N 39°08' W 049°09'1 0.6 1019.7 27.4
2018-Aug-16 14:00N 39°07' W 049°09'0 0.0 1019.9 27.3
2018-Aug-16 13:00N 39°07' W 049°09'0 0.0 1020.0 27.2
2018-Aug-16 12:00N 39°07' W 049°09'0 0.0 1019.7 27.2
2018-Aug-16 11:00N 39°07' W 049°09'0 0.5 1019.5 27.2
2018-Aug-16 10:00N 39°07' W 049°08'0 0.2 1019.2 27.2
2018-Aug-16 08:00N 39°07' W 049°08'2 0.2 1018.2 27.1
2018-Aug-16 01:00N 39°08' W 049°07'0 0.2 1018.0 27.3
2018-Aug-15 23:00N 39°08' W 049°06'0 0.0 1017.6 27.3
2018-Aug-15 21:00N 39°08' W 049°06'2 0.4 1016.6 27.3
2018-Aug-15 16:00N 39°07' W 049°04'1 0.6 1016.4 27.3
2018-Aug-15 14:00N 39°07' W 049°03'1 1.1 1016.5 27.2
2018-Aug-15 13:00N 39°06' W 049°02'0 0.5 1016.6 27.2
2018-Aug-15 12:00N 39°06' W 049°01'3 0.6 1016.7 27.1
2018-Aug-15 07:00N 39°05' W 048°58'2 0.6 1016.3 27.2
2018-Aug-15 04:00N 39°04' W 048°56'0 0.5 1016.7 27.3
2018-Aug-15 03:00N 39°04' W 048°55'1 0.8 1017.2 27.3
2018-Aug-15 02:00N 39°04' W 048°55'1 0.6 1017.2 27.3
2018-Aug-15 00:00N 39°03' W 048°53'2 0.9 1017.1 27.3
2018-Aug-14 22:00N 39°02' W 048°52'1 0.8 1016.2 27.4
2018-Aug-14 21:00N 39°01' W 048°51'1 0.8 1015.6 27.4
2018-Aug-14 20:00N 39°01' W 048°50'1 0.8 1015.7 27.4
2018-Aug-14 19:00N 39°00' W 048°50'2 1.5 1015.5 27.4
2018-Aug-14 18:00N 38°59' W 048°49'2 1.1 1015.6 27.4
2018-Aug-14 16:00N 38°57' W 048°47'1 1.1 1015.7 27.4
2018-Aug-14 15:00N 38°56' W 048°46'2 1.5 1015.7 27.3
2018-Aug-14 14:00N 38°55' W 048°44'3 1.3 1016.0 27.3
2018-Aug-14 12:00N 38°54' W 048°41'1 1.1 1015.7 27.2
2018-Aug-14 11:00N 38°53' W 048°40'3 1.3 1015.5 27.2
2018-Aug-14 09:00N 38°52' W 048°38'1 0.8 1014.7 27.2
2018-Aug-14 08:00N 38°51' W 048°37'1 1.1 1014.1 27.3
2018-Aug-14 07:00N 38°50' W 048°36'1 1.1 1013.9 27.3
2018-Aug-14 06:00N 38°50' W 048°35'1 0.8 1014.3 27.3
2018-Aug-14 05:00N 38°49' W 048°34'1 1.3 1014.6 27.3
2018-Aug-14 04:00N 38°48' W 048°34'1 0.8 1014.6 27.3
2018-Aug-14 03:00N 38°47' W 048°33'2 1.5 1014.9 27.3
2018-Aug-14 02:00N 38°46' W 048°32'1 1.3 1014.7 27.4
2018-Aug-14 01:00N 38°45' W 048°31'1 1.3 1014.5 27.4
2018-Aug-14 00:00N 38°44' W 048°31'1 1.1 1014.4 27.4
2018-Aug-13 23:00N 38°43' W 048°29'2 1.5 1014.1 27.4
2018-Aug-13 22:00N 38°42' W 048°28'1 1.1 1014.0 27.4
2018-Aug-13 21:00N 38°41' W 048°27'1 1.1 1014.1 27.5
2018-Aug-13 20:00N 38°41' W 048°26'1 0.8 1013.8 27.6
2018-Aug-13 19:00N 38°40' W 048°25'2 0.8 1013.3 27.6
2018-Aug-13 17:00N 38°39' W 048°24'1 0.8 1013.6 27.5
2018-Aug-13 16:00N 38°38' W 048°23'0 0.5 1013.8 27.5
2018-Aug-13 15:00N 38°38' W 048°23'1 0.8 1014.0 27.4
2018-Aug-13 14:00N 38°38' W 048°22'1 0.8 1014.1 27.4
2018-Aug-13 13:00N 38°37' W 048°22'1 0.6 1014.8 27.3
2018-Aug-13 12:00N 38°37' W 048°22'1 0.8 1014.8 27.2
2018-Aug-13 11:00N 38°36' W 048°21'0 0.0 1015.0 27.2
2018-Aug-13 10:00N 38°36' W 048°21'1 0.6 1015.0 27.2
2018-Aug-13 09:00N 38°35' W 048°21'1 0.6 1015.3 27.2
2018-Aug-13 08:00N 38°35' W 048°21'1 1.2 1015.2 27.2
2018-Aug-13 07:00N 38°34' W 048°21'1 0.6 1015.1 27.2
2018-Aug-13 06:00N 38°33' W 048°21'1 0.6 1015.6 27.2
2018-Aug-13 05:00N 38°32' W 048°21'1 0.6 1016.1 27.2
2018-Aug-13 04:00N 38°32' W 048°21'2 0.9 1016.2 27.3
2018-Aug-13 02:00N 38°30' W 048°20'1 0.6 1017.1 27.4
2018-Aug-13 01:00N 38°29' W 048°20'0 0.5 1017.8 27.4
2018-Aug-13 00:00N 38°29' W 048°20'1 0.6 1018.3 27.4
2018-Aug-12 23:00N 38°29' W 048°20'1 0.6 1017.8 27.5
2018-Aug-12 21:00N 38°28' W 048°19'0 0.0 1018.1 27.6
2018-Aug-12 20:00N 38°28' W 048°19'1 0.6 1018.2 27.6
2018-Aug-12 19:00N 38°27' W 048°19'0 0.0 1018.4 27.6
2018-Aug-12 18:00N 38°27' W 048°19'1 0.6 1018.9 27.6
2018-Aug-12 17:00N 38°26' W 048°19'1 0.8 1019.6 27.6
2018-Aug-12 16:00N 38°26' W 048°20'0 0.0 1020.1 27.5
2018-Aug-12 15:00N 38°26' W 048°20'1 0.6 1020.6 27.5
2018-Aug-12 14:00N 38°25' W 048°20'1 0.8 1020.7 27.4
2018-Aug-12 13:00N 38°25' W 048°20'1 0.8 1020.8 27.3
2018-Aug-12 12:00N 38°24' W 048°21'1 0.6 1021.1 27.2
2018-Aug-12 11:00N 38°23' W 048°21'1 0.6 1021.2 27.2
2018-Aug-12 10:00N 38°23' W 048°21'1 0.6 1021.5 27.2
2018-Aug-12 09:00N 38°22' W 048°21'1 0.6 1021.4 27.2
2018-Aug-12 08:00N 38°22' W 048°21'1 0.6 1021.2 27.2
2018-Aug-12 07:00N 38°21' W 048°21'1 0.6 1021.3 27.2
2018-Aug-12 06:00N 38°20' W 048°21'1 0.6 1021.4 27.2
2018-Aug-12 05:00N 38°20' W 048°21'1 0.6 1021.9 27.2
2018-Aug-12 04:00N 38°19' W 048°21'1 0.8 1022.3 27.2
2018-Aug-12 03:00N 38°19' W 048°20'0 0.0 1022.5 27.2
2018-Aug-12 02:00N 38°19' W 048°20'1 0.8 1022.4 27.3
2018-Aug-12 01:00N 38°18' W 048°20'0 0.0 1022.9 27.3
2018-Aug-12 00:00N 38°18' W 048°20'0 0.0 1023.1 27.3
2018-Aug-11 23:00N 38°18' W 048°20'0 0.5 1022.7 27.3
2018-Aug-11 22:00N 38°18' W 048°20'1 0.6 1022.5 27.3
2018-Aug-11 21:00N 38°17' W 048°20'0 0.5 1022.4 27.4
2018-Aug-11 20:00N 38°17' W 048°21'1 0.8 1022.2 27.4
2018-Aug-11 19:00N 38°17' W 048°22'1 0.8 1022.4 27.4
2018-Aug-11 18:00N 38°16' W 048°22'1 0.8 1022.3 27.4
2018-Aug-11 17:00N 38°16' W 048°23'1 1.3 1022.3 27.4
2018-Aug-11 16:00N 38°14' W 048°23'1 0.6 1022.2 27.3
2018-Aug-11 15:00N 38°14' W 048°23'1 1.3 1022.0 27.2
2018-Aug-11 14:00N 38°13' W 048°24'1 0.6 1022.2 27.1
2018-Aug-11 13:00N 38°12' W 048°24'1 0.6 1022.3 27.0
2018-Aug-11 12:00N 38°11' W 048°24'1 0.6 1022.0 26.9
2018-Aug-11 11:00N 38°11' W 048°24'1 0.6 1021.7 26.9
2018-Aug-11 10:00N 38°10' W 048°24'1 0.6 1021.6 26.9
2018-Aug-11 09:00N 38°10' W 048°24'0 0.0 1021.4 27.0
2018-Aug-11 08:00N 38°10' W 048°24'1 0.6 1021.2 27.0
2018-Aug-11 07:00N 38°09' W 048°24'0 0.5 1021.2 27.0
2018-Aug-11 06:00N 38°09' W 048°25'1 0.6 1021.2 27.1
2018-Aug-11 05:00N 38°08' W 048°25'1 0.6 1021.5 27.1
2018-Aug-11 03:00N 38°08' W 048°26'1 0.6 1021.8 27.1
2018-Aug-11 02:00N 38°07' W 048°26'1 0.9 1021.8 27.1
2018-Aug-11 01:00N 38°07' W 048°27'1 0.8 1022.0 27.2
2018-Aug-11 00:00N 38°07' W 048°28'1 0.8 1021.6 27.2
2018-Aug-10 23:00N 38°06' W 048°28'1 0.8 1021.1 27.2
2018-Aug-10 22:00N 38°05' W 048°29'1 0.6 1020.6 27.3
2018-Aug-10 21:00N 38°05' W 048°29'1 1.3 1020.0 27.4
2018-Aug-10 20:00N 38°04' W 048°29'1 0.8 1020.0 27.5
2018-Aug-10 19:00N 38°03' W 048°30'1 0.6 1019.9 27.6
2018-Aug-10 18:00N 38°02' W 048°30'1 0.6 1019.7 27.6
2018-Aug-10 16:00N 38°01' W 048°31'0 0.0 1019.8 27.4
2018-Aug-10 15:00N 38°01' W 048°31'1 0.8 1019.8 27.2
2018-Aug-10 14:00N 38°01' W 048°31'0 0.0 1020.0 27.1
2018-Aug-10 13:00N 38°01' W 048°31'1 0.8 1019.7 27.1
2018-Aug-10 12:00N 38°00' W 048°32'0 0.0 1019.7 27.0
2018-Aug-10 11:00N 38°00' W 048°32'0 0.5 1019.6 26.9
2018-Aug-10 10:00N 38°00' W 048°32'1 0.5 1019.4 26.9
2018-Aug-10 08:00N 38°00' W 048°34'1 0.8 1019.1 26.9
2018-Aug-10 07:00N 37°59' W 048°34'0 0.5 1019.0 26.9
2018-Aug-10 06:00N 37°59' W 048°35'1 0.8 1019.0 26.9
2018-Aug-10 05:00N 37°59' W 048°35'0 0.5 1019.0 26.9
2018-Aug-10 04:00N 37°59' W 048°36'1 0.6 1019.2 26.9
2018-Aug-10 03:00N 37°58' W 048°36'1 0.8 1019.6 27.0
2018-Aug-10 02:00N 37°58' W 048°37'0 0.0 1019.7 27.0
2018-Aug-10 01:00N 37°58' W 048°37'0 0.5 1019.7 27.0
2018-Aug-10 00:00N 37°58' W 048°37'1 0.6 1019.4 27.1
2018-Aug-09 23:00N 37°57' W 048°37'0 0.5 1018.6 27.2
2018-Aug-09 22:00N 37°57' W 048°38'   1018.0 27.2

Dump ship's entire track history